createdAt,value
2018-04-18T00:00:34.656Z,0
2018-04-18T00:01:15.233Z,0
2018-04-18T00:01:55.823Z,0
2018-04-18T00:02:36.368Z,0
2018-04-18T00:03:16.937Z,0
2018-04-18T00:03:57.523Z,0
2018-04-18T00:04:38.084Z,0
2018-04-18T00:05:18.661Z,0
2018-04-18T00:05:59.238Z,0
2018-04-18T00:06:39.814Z,0
2018-04-18T00:07:20.380Z,0
2018-04-18T00:08:00.937Z,0
2018-04-18T00:08:41.513Z,0
2018-04-18T00:11:19.992Z,0
2018-04-18T00:12:00.555Z,0
2018-04-18T00:12:41.103Z,0
2018-04-18T00:13:21.662Z,0
2018-04-18T00:14:02.241Z,0
2018-04-18T00:14:42.788Z,0
2018-04-18T00:15:23.348Z,0
2018-04-18T00:16:03.897Z,0
2018-04-18T00:16:44.458Z,0
2018-04-18T00:17:25.000Z,0
2018-04-18T00:18:05.561Z,0
2018-04-18T00:18:46.133Z,0
2018-04-18T00:19:26.677Z,0
2018-04-18T00:20:07.248Z,0
2018-04-18T00:20:47.794Z,0
2018-04-18T00:21:28.363Z,0
2018-04-18T00:22:08.909Z,0
2018-04-18T00:22:49.473Z,0
2018-04-18T00:23:30.009Z,0
2018-04-18T00:24:10.573Z,0
2018-04-18T00:24:51.136Z,0
2018-04-18T00:25:31.692Z,0
2018-04-18T00:26:15.221Z,0
2018-04-18T00:26:55.833Z,0
2018-04-18T00:27:36.382Z,0
2018-04-18T00:28:16.953Z,0
2018-04-18T00:28:57.519Z,0
2018-04-18T00:29:38.095Z,0
2018-04-18T00:30:18.672Z,0
2018-04-18T00:30:59.298Z,0
2018-04-18T00:31:39.863Z,0
2018-04-18T00:32:20.478Z,0
2018-04-18T00:33:01.058Z,0
2018-04-18T00:33:41.630Z,0
2018-04-18T00:34:22.181Z,0
2018-04-18T00:35:02.746Z,0
2018-04-18T00:35:43.317Z,0
2018-04-18T00:36:23.940Z,0
2018-04-18T00:37:04.527Z,0
2018-04-18T00:37:45.086Z,0
2018-04-18T00:38:25.638Z,0
2018-04-18T00:39:06.197Z,0
2018-04-18T00:39:46.756Z,0
2018-04-18T00:40:27.310Z,0
2018-04-18T00:41:07.938Z,0
2018-04-18T00:41:48.494Z,0
2018-04-18T00:42:29.123Z,0
2018-04-18T00:43:09.702Z,0
2018-04-18T00:43:50.285Z,0
2018-04-18T00:44:30.893Z,0
2018-04-18T00:45:11.458Z,0
2018-04-18T00:45:52.013Z,0
2018-04-18T00:46:32.577Z,0
2018-04-18T00:47:13.143Z,0
2018-04-18T00:47:53.705Z,0
2018-04-18T00:48:34.274Z,0
2018-04-18T00:49:14.822Z,0
2018-04-18T00:49:55.409Z,0
2018-04-18T00:50:36.000Z,0
2018-04-18T00:51:16.562Z,0
2018-04-18T00:51:57.116Z,0
2018-04-18T00:52:37.679Z,0
2018-04-18T00:53:18.263Z,0
2018-04-18T00:53:58.841Z,0
2018-04-18T00:54:39.409Z,0
2018-04-18T00:55:19.983Z,0
2018-04-18T00:56:00.576Z,0
2018-04-18T00:56:41.141Z,0
2018-04-18T00:57:21.701Z,0
2018-04-18T00:58:02.304Z,0
2018-04-18T00:58:42.862Z,0
2018-04-18T00:59:23.489Z,0
2018-04-18T01:00:04.083Z,0
2018-04-18T01:00:44.659Z,0
2018-04-18T01:01:25.225Z,0
2018-04-18T01:02:05.788Z,0
2018-04-18T01:02:46.358Z,0
2018-04-18T01:03:26.919Z,0
2018-04-18T01:04:07.477Z,0
2018-04-18T01:04:48.044Z,0
2018-04-18T01:05:28.630Z,0
2018-04-18T01:06:09.185Z,0
2018-04-18T01:06:49.744Z,0
2018-04-18T01:07:30.317Z,0
2018-04-18T01:08:10.914Z,0
2018-04-18T01:08:51.469Z,0
2018-04-18T01:09:32.036Z,0
2018-04-18T01:10:12.605Z,0
2018-04-18T01:10:53.199Z,0
2018-04-18T01:11:33.749Z,0
2018-04-18T01:12:14.307Z,0
2018-04-18T01:12:54.866Z,0
2018-04-18T01:13:35.452Z,0
2018-04-18T01:14:16.033Z,0
2018-04-18T01:14:56.604Z,0
2018-04-18T01:15:37.165Z,0
2018-04-18T01:16:17.716Z,0
2018-04-18T01:16:58.276Z,0
2018-04-18T01:17:38.849Z,0
2018-04-18T01:18:19.451Z,0
2018-04-18T01:19:00.020Z,0
2018-04-18T01:19:40.569Z,0
2018-04-18T01:20:21.148Z,0
2018-04-18T01:21:01.710Z,0
2018-04-18T01:21:42.279Z,0
2018-04-18T01:22:22.863Z,0
2018-04-18T01:23:03.429Z,0
2018-04-18T01:23:44.000Z,0
2018-04-18T01:24:24.575Z,0
2018-04-18T01:25:05.130Z,0
2018-04-18T01:25:45.697Z,0
2018-04-18T01:26:26.269Z,0
2018-04-18T01:27:06.844Z,0
2018-04-18T01:27:47.411Z,0
2018-04-18T01:28:27.963Z,0
2018-04-18T01:29:08.542Z,0
2018-04-18T01:29:49.101Z,0
2018-04-18T01:30:29.663Z,0
2018-04-18T01:31:10.296Z,0
2018-04-18T01:31:50.819Z,0
2018-04-18T01:32:31.375Z,0
2018-04-18T01:33:11.933Z,0
2018-04-18T01:33:52.492Z,0
2018-04-18T01:34:33.052Z,0
2018-04-18T01:35:13.611Z,0
2018-04-18T01:35:54.195Z,0
2018-04-18T01:36:34.764Z,0
2018-04-18T01:37:15.313Z,0
2018-04-18T01:37:55.874Z,0
2018-04-18T01:38:36.429Z,0
2018-04-18T01:39:16.997Z,0
2018-04-18T01:39:57.585Z,0
2018-04-18T01:40:38.254Z,0
2018-04-18T01:41:18.817Z,0
2018-04-18T01:41:59.396Z,0
2018-04-18T01:42:39.997Z,0
2018-04-18T01:43:20.576Z,0
2018-04-18T01:44:01.137Z,0
2018-04-18T01:44:41.697Z,0
2018-04-18T01:45:22.267Z,0
2018-04-18T01:46:02.844Z,0
2018-04-18T01:46:43.396Z,0
2018-04-18T01:47:23.954Z,0
2018-04-18T01:48:04.512Z,0
2018-04-18T01:48:45.078Z,0
2018-04-18T01:49:25.642Z,0
2018-04-18T01:50:06.208Z,0
2018-04-18T01:50:46.768Z,0
2018-04-18T01:51:27.350Z,0
2018-04-18T01:52:07.918Z,0
2018-04-18T01:52:48.508Z,0
2018-04-18T01:53:29.105Z,0
2018-04-18T01:54:09.668Z,0
2018-04-18T01:54:50.228Z,0
2018-04-18T01:55:30.806Z,0
2018-04-18T01:56:11.361Z,0
2018-04-18T01:56:51.913Z,0
2018-04-18T01:57:32.527Z,0
2018-04-18T01:58:13.081Z,0
2018-04-18T01:58:53.642Z,0
2018-04-18T01:59:34.260Z,0
2018-04-18T02:00:14.856Z,0
2018-04-18T02:00:55.428Z,0
2018-04-18T02:01:36.005Z,0
2018-04-18T02:02:16.575Z,0
2018-04-18T02:02:57.127Z,0
2018-04-18T02:03:37.687Z,0
2018-04-18T02:04:18.240Z,0
2018-04-18T02:04:58.844Z,0
2018-04-18T02:05:39.420Z,0
2018-04-18T02:06:20.005Z,0
2018-04-18T02:07:00.567Z,0
2018-04-18T02:07:41.120Z,0
2018-04-18T02:08:21.690Z,0
2018-04-18T02:09:02.299Z,0
2018-04-18T02:09:42.882Z,0
2018-04-18T02:10:23.444Z,0
2018-04-18T02:11:04.012Z,0
2018-04-18T02:11:44.569Z,0
2018-04-18T02:12:25.128Z,0
2018-04-18T02:13:05.712Z,0
2018-04-18T02:13:46.317Z,0
2018-04-18T02:14:26.911Z,0
2018-04-18T02:15:07.521Z,0
2018-04-18T02:15:48.107Z,0
2018-04-18T02:16:28.703Z,0
2018-04-18T02:17:09.295Z,0
2018-04-18T02:17:49.885Z,0
2018-04-18T02:18:30.467Z,0
2018-04-18T02:19:11.028Z,0
2018-04-18T02:19:51.598Z,0
2018-04-18T02:20:32.162Z,0
2018-04-18T02:21:12.759Z,0
2018-04-18T02:21:53.349Z,0
2018-04-18T02:22:33.913Z,0
2018-04-18T02:23:14.554Z,0
2018-04-18T02:23:55.109Z,0
2018-04-18T02:24:35.672Z,0
2018-04-18T02:25:16.283Z,0
2018-04-18T02:25:56.833Z,0
2018-04-18T02:26:37.389Z,0
2018-04-18T02:27:17.954Z,0
2018-04-18T02:27:58.547Z,0
2018-04-18T02:28:39.102Z,0
2018-04-18T02:29:19.669Z,0
2018-04-18T02:30:00.257Z,0
2018-04-18T02:30:40.797Z,0
2018-04-18T02:31:21.348Z,0
2018-04-18T02:32:01.902Z,0
2018-04-18T02:32:42.488Z,0
2018-04-18T02:33:23.045Z,0
2018-04-18T02:34:03.630Z,0
2018-04-18T02:34:44.194Z,0
2018-04-18T02:35:24.752Z,0
2018-04-18T02:36:05.332Z,0
2018-04-18T02:36:45.891Z,0
2018-04-18T02:37:26.487Z,0
2018-04-18T02:38:07.045Z,0
2018-04-18T02:38:47.615Z,0
2018-04-18T02:39:28.175Z,0
2018-04-18T02:40:08.751Z,0
2018-04-18T02:40:49.330Z,0
2018-04-18T02:41:29.888Z,0
2018-04-18T02:42:10.454Z,0
2018-04-18T02:42:51.017Z,0
2018-04-18T02:43:31.567Z,0
2018-04-18T02:44:12.128Z,0
2018-04-18T02:44:52.692Z,0
2018-04-18T02:45:33.255Z,0
2018-04-18T02:46:13.810Z,0
2018-04-18T02:46:54.402Z,0
2018-04-18T02:47:34.982Z,0
2018-04-18T02:48:15.559Z,0
2018-04-18T02:48:56.145Z,0
2018-04-18T02:49:36.801Z,0
2018-04-18T02:50:17.397Z,0
2018-04-18T02:50:57.973Z,0
2018-04-18T02:51:38.556Z,0
2018-04-18T02:52:19.147Z,0
2018-04-18T02:52:59.709Z,0
2018-04-18T02:53:40.294Z,0
2018-04-18T02:54:20.847Z,0
2018-04-18T02:55:01.424Z,0
2018-04-18T02:55:41.996Z,0
2018-04-18T02:56:22.568Z,0
2018-04-18T02:57:03.149Z,0
2018-04-18T02:57:43.717Z,0
2018-04-18T02:58:24.280Z,0
2018-04-18T02:59:04.889Z,0
2018-04-18T02:59:45.441Z,0
2018-04-18T03:00:25.999Z,0
2018-04-18T03:01:06.577Z,0
2018-04-18T03:01:47.134Z,0
2018-04-18T03:02:27.775Z,0
2018-04-18T03:03:08.360Z,0
2018-04-18T03:03:48.922Z,0
2018-04-18T03:04:29.506Z,0
2018-04-18T03:05:10.071Z,0
2018-04-18T03:05:50.626Z,0
2018-04-18T03:06:31.202Z,0
2018-04-18T03:07:11.765Z,0
2018-04-18T03:07:52.351Z,0
2018-04-18T03:08:32.910Z,0
2018-04-18T03:09:13.474Z,0
2018-04-18T03:09:54.030Z,0
2018-04-18T03:10:34.597Z,0
2018-04-18T03:11:15.184Z,0
2018-04-18T03:11:55.760Z,0
2018-04-18T03:12:36.366Z,0
2018-04-18T03:13:16.930Z,0
2018-04-18T03:13:57.490Z,0
2018-04-18T03:14:38.075Z,0
2018-04-18T03:15:18.637Z,0
2018-04-18T03:15:59.193Z,0
2018-04-18T03:16:39.768Z,0
2018-04-18T03:17:20.317Z,0
2018-04-18T03:18:00.911Z,0
2018-04-18T03:18:41.502Z,0
2018-04-18T03:19:22.102Z,0
2018-04-18T03:20:02.663Z,0
2018-04-18T03:20:43.245Z,0
2018-04-18T03:21:23.803Z,0
2018-04-18T03:22:04.362Z,0
2018-04-18T03:22:44.938Z,0
2018-04-18T03:23:25.503Z,0
2018-04-18T03:24:06.169Z,0
2018-04-18T03:24:46.726Z,0
2018-04-18T03:25:27.295Z,0
2018-04-18T03:26:07.865Z,0
2018-04-18T03:26:48.431Z,0
2018-04-18T03:27:29.039Z,0
2018-04-18T03:28:09.547Z,0
2018-04-18T03:28:50.122Z,0
2018-04-18T03:29:30.707Z,0
2018-04-18T03:30:11.287Z,0
2018-04-18T03:30:51.854Z,0
2018-04-18T03:31:32.606Z,0
2018-04-18T03:32:13.187Z,0
2018-04-18T03:32:53.767Z,0
2018-04-18T03:33:34.332Z,0
2018-04-18T03:34:14.898Z,0
2018-04-18T03:34:55.497Z,0
2018-04-18T03:35:36.058Z,0
2018-04-18T03:36:16.612Z,0
2018-04-18T03:36:57.199Z,0
2018-04-18T03:37:37.758Z,0
2018-04-18T03:38:18.322Z,0
2018-04-18T03:38:58.894Z,0
2018-04-18T03:39:39.476Z,0
2018-04-18T03:40:20.054Z,0
2018-04-18T03:41:00.704Z,0
2018-04-18T03:41:41.346Z,0
2018-04-18T03:42:21.961Z,0
2018-04-18T03:43:02.515Z,0
2018-04-18T03:43:43.078Z,0
2018-04-18T03:44:23.629Z,0
2018-04-18T03:45:04.201Z,0
2018-04-18T03:45:44.762Z,0
2018-04-18T03:46:25.423Z,0
2018-04-18T03:47:05.978Z,0
2018-04-18T03:47:46.580Z,0
2018-04-18T03:48:27.148Z,0
2018-04-18T03:49:07.722Z,0
2018-04-18T03:49:48.298Z,0
2018-04-18T03:50:28.870Z,0
2018-04-18T03:51:09.448Z,0
2018-04-18T03:51:50.032Z,0
2018-04-18T03:52:30.615Z,0
2018-04-18T03:53:11.247Z,0
2018-04-18T03:53:51.846Z,0
2018-04-18T03:54:32.440Z,0
2018-04-18T03:55:13.050Z,0
2018-04-18T03:55:53.620Z,0
2018-04-18T03:56:34.184Z,0
2018-04-18T03:57:14.811Z,0
2018-04-18T03:57:55.400Z,0
2018-04-18T03:58:35.991Z,0
2018-04-18T03:59:16.553Z,0
2018-04-18T03:59:57.113Z,0
2018-04-18T04:00:37.690Z,0
2018-04-18T04:01:18.251Z,0
2018-04-18T04:01:58.841Z,0
2018-04-18T04:02:39.411Z,5
2018-04-18T04:03:19.974Z,5
2018-04-18T04:04:00.536Z,5
2018-04-18T04:04:41.142Z,5
2018-04-18T04:05:21.722Z,5
2018-04-18T04:06:02.306Z,5
2018-04-18T04:06:42.867Z,5
2018-04-18T04:07:23.428Z,5
2018-04-18T04:08:03.986Z,5
2018-04-18T04:08:44.546Z,5
2018-04-18T04:09:25.165Z,5
2018-04-18T04:10:05.718Z,5
2018-04-18T04:10:46.277Z,5
2018-04-18T04:11:26.848Z,5
2018-04-18T04:12:07.455Z,5
2018-04-18T04:12:48.032Z,10
2018-04-18T04:13:28.579Z,10
2018-04-18T04:14:09.160Z,10
2018-04-18T04:14:49.727Z,10
2018-04-18T04:15:30.295Z,10
2018-04-18T04:16:10.857Z,10
2018-04-18T04:16:51.425Z,10
2018-04-18T04:17:32.071Z,10
2018-04-18T04:18:12.649Z,10
2018-04-18T04:18:53.221Z,10
2018-04-18T04:19:33.800Z,15
2018-04-18T04:20:14.413Z,15
2018-04-18T04:20:54.989Z,15
2018-04-18T04:21:35.545Z,15
2018-04-18T04:22:16.211Z,15
2018-04-18T04:22:56.754Z,15
2018-04-18T04:23:37.379Z,15
2018-04-18T04:24:17.920Z,15
2018-04-18T04:24:58.472Z,15
2018-04-18T04:25:39.051Z,15
2018-04-18T04:26:19.636Z,15
2018-04-18T04:27:00.194Z,20
2018-04-18T04:27:40.782Z,20
2018-04-18T04:28:21.344Z,20
2018-04-18T04:29:01.968Z,20
2018-04-18T04:29:42.505Z,20
2018-04-18T04:30:23.069Z,20
2018-04-18T04:31:03.723Z,20
2018-04-18T04:31:44.298Z,20
2018-04-18T04:32:24.881Z,20
2018-04-18T04:33:05.429Z,20
2018-04-18T04:33:46.069Z,25
2018-04-18T04:34:26.641Z,25
2018-04-18T04:35:07.246Z,25
2018-04-18T04:35:47.809Z,25
2018-04-18T04:36:28.378Z,25
2018-04-18T04:37:08.929Z,25
2018-04-18T04:37:49.512Z,25
2018-04-18T04:38:30.082Z,25
2018-04-18T04:39:10.642Z,25
2018-04-18T04:39:51.353Z,25
2018-04-18T04:40:31.966Z,30
2018-04-18T04:41:12.526Z,30
2018-04-18T04:41:53.096Z,30
2018-04-18T04:42:33.662Z,30
2018-04-18T04:43:14.219Z,30
2018-04-18T04:43:54.801Z,35
2018-04-18T04:44:35.364Z,35
2018-04-18T04:45:15.941Z,35
2018-04-18T04:45:56.526Z,35
2018-04-18T04:46:37.127Z,35
2018-04-18T04:47:17.689Z,35
2018-04-18T04:47:58.335Z,40
2018-04-18T04:48:38.908Z,40
2018-04-18T04:49:19.498Z,40
2018-04-18T04:50:00.064Z,40
2018-04-18T04:50:40.642Z,40
2018-04-18T04:51:21.200Z,45
2018-04-18T04:52:01.766Z,45
2018-04-18T04:52:42.326Z,45
2018-04-18T04:53:22.914Z,50
2018-04-18T04:54:03.437Z,50
2018-04-18T04:54:44.007Z,50
2018-04-18T04:55:24.624Z,50
2018-04-18T04:56:05.231Z,45
2018-04-18T04:56:45.795Z,50
2018-04-18T04:57:26.372Z,50
2018-04-18T04:58:07.037Z,55
2018-04-18T04:58:47.632Z,60
2018-04-18T04:59:28.257Z,60
2018-04-18T05:00:08.839Z,65
2018-04-18T05:00:49.452Z,65
2018-04-18T05:01:30.933Z,65
2018-04-18T05:02:11.835Z,65
2018-04-18T05:02:52.582Z,60
2018-04-18T05:03:33.258Z,65
2018-04-18T05:04:13.876Z,65
2018-04-18T05:04:54.447Z,70
2018-04-18T05:05:35.061Z,70
2018-04-18T05:06:15.644Z,70
2018-04-18T05:06:56.479Z,75
2018-04-18T05:07:37.208Z,75
2018-04-18T05:08:18.138Z,75
2018-04-18T05:08:59.037Z,75
2018-04-18T05:09:39.583Z,75
2018-04-18T05:10:20.280Z,75
2018-04-18T05:11:00.877Z,75
2018-04-18T05:11:41.387Z,75
2018-04-18T05:12:22.271Z,80
2018-04-18T05:13:03.013Z,80
2018-04-18T05:13:43.617Z,80
2018-04-18T05:14:24.192Z,85
2018-04-18T05:15:04.750Z,85
2018-04-18T05:15:45.302Z,85
2018-04-18T05:16:25.888Z,85
2018-04-18T05:17:06.539Z,85
2018-04-18T05:17:47.105Z,85
2018-04-18T05:18:27.702Z,85
2018-04-18T05:19:08.276Z,90
2018-04-18T05:19:48.861Z,85
2018-04-18T05:20:29.480Z,90
2018-04-18T05:21:10.095Z,90
2018-04-18T05:21:50.622Z,90
2018-04-18T05:22:31.190Z,90
2018-04-18T05:23:11.777Z,95
2018-04-18T05:23:52.341Z,95
2018-04-18T05:24:32.941Z,95
2018-04-18T05:25:13.554Z,100
2018-04-18T05:25:54.142Z,100
2018-04-18T05:26:34.742Z,105
2018-04-18T05:27:15.467Z,105
2018-04-18T05:27:56.032Z,105
2018-04-18T05:28:36.611Z,105
2018-04-18T05:29:17.192Z,110
2018-04-18T05:29:58.671Z,110
2018-04-18T05:30:39.261Z,110
2018-04-18T05:31:19.863Z,110
2018-04-18T05:32:00.457Z,110
2018-04-18T05:32:41.050Z,110
2018-04-18T05:33:21.749Z,110
2018-04-18T05:34:02.315Z,110
2018-04-18T05:34:43.029Z,110
2018-04-18T05:35:23.613Z,110
2018-04-18T05:36:04.174Z,115
2018-04-18T05:36:44.749Z,115
2018-04-18T05:37:25.366Z,115
2018-04-18T05:38:05.913Z,115
2018-04-18T05:38:46.482Z,120
2018-04-18T05:39:27.029Z,115
2018-04-18T05:40:07.578Z,105
2018-04-18T05:40:48.149Z,100
2018-04-18T05:41:28.726Z,115
2018-04-18T05:42:09.298Z,120
2018-04-18T05:42:49.881Z,125
2018-04-18T05:43:30.467Z,130
2018-04-18T05:44:11.017Z,130
2018-04-18T05:44:51.606Z,130
2018-04-18T05:45:32.273Z,130
2018-04-18T05:46:12.870Z,135
2018-04-18T05:46:53.473Z,135
2018-04-18T05:47:34.031Z,135
2018-04-18T05:48:14.609Z,135
2018-04-18T05:48:55.237Z,140
2018-04-18T05:49:35.831Z,140
2018-04-18T05:50:16.381Z,140
2018-04-18T05:50:56.971Z,145
2018-04-18T05:51:37.556Z,145
2018-04-18T05:52:18.139Z,145
2018-04-18T05:52:58.697Z,145
2018-04-18T05:53:39.301Z,150
2018-04-18T05:54:19.872Z,150
2018-04-18T05:55:00.470Z,150
2018-04-18T05:55:41.019Z,155
2018-04-18T05:56:21.589Z,155
2018-04-18T05:57:02.155Z,155
2018-04-18T05:57:42.776Z,155
2018-04-18T05:58:23.346Z,160
2018-04-18T05:59:03.960Z,160
2018-04-18T05:59:44.534Z,160
2018-04-18T06:00:25.090Z,165
2018-04-18T06:01:05.676Z,165
2018-04-18T06:01:46.292Z,165
2018-04-18T06:02:26.861Z,170
2018-04-18T06:03:07.446Z,170
2018-04-18T06:03:48.020Z,170
2018-04-18T06:04:28.613Z,175
2018-04-18T06:05:09.181Z,175
2018-04-18T06:05:49.777Z,175
2018-04-18T06:06:30.409Z,180
2018-04-18T06:07:11.182Z,180
2018-04-18T06:07:51.743Z,180
2018-04-18T06:08:32.313Z,180
2018-04-18T06:09:12.861Z,185
2018-04-18T06:09:53.426Z,185
2018-04-18T06:10:34.686Z,185
2018-04-18T06:11:15.300Z,190
2018-04-18T06:11:55.907Z,190
2018-04-18T06:12:36.764Z,190
2018-04-18T06:13:17.364Z,190
2018-04-18T06:13:58.046Z,195
2018-04-18T06:14:38.677Z,195
2018-04-18T06:15:19.268Z,200
2018-04-18T06:15:59.820Z,200
2018-04-18T06:16:41.130Z,205
2018-04-18T06:17:21.842Z,205
2018-04-18T06:18:02.456Z,210
2018-04-18T06:18:43.146Z,210
2018-04-18T06:19:23.948Z,215
2018-04-18T06:20:04.537Z,215
2018-04-18T06:20:46.173Z,215
2018-04-18T06:21:26.760Z,215
2018-04-18T06:22:07.374Z,220
2018-04-18T06:22:48.019Z,305
2018-04-18T06:23:28.845Z,655
2018-04-18T06:24:09.479Z,1010
2018-04-18T06:24:51.760Z,1160
2018-04-18T06:25:31.568Z,1190
2018-04-18T06:26:12.139Z,1195
2018-04-18T06:26:52.762Z,1215
2018-04-18T06:27:33.329Z,1245
2018-04-18T06:28:13.892Z,1260
2018-04-18T06:28:54.463Z,1280
2018-04-18T06:29:35.069Z,1270
2018-04-18T06:30:15.633Z,1270
2018-04-18T06:30:56.189Z,1270
2018-04-18T06:31:36.745Z,1305
2018-04-18T06:32:17.314Z,1255
2018-04-18T06:32:57.984Z,1295
2018-04-18T06:33:38.607Z,1260
2018-04-18T06:34:19.270Z,1295
2018-04-18T06:34:59.779Z,1315
2018-04-18T06:35:40.375Z,1375
2018-04-18T06:36:20.946Z,1365
2018-04-18T06:37:01.599Z,1320
2018-04-18T06:37:42.237Z,1345
2018-04-18T06:38:22.900Z,1365
2018-04-18T06:39:03.491Z,1365
2018-04-18T06:39:44.094Z,1320
2018-04-18T06:40:25.010Z,1345
2018-04-18T06:41:05.578Z,1310
2018-04-18T06:41:46.180Z,1415
2018-04-18T06:42:26.789Z,1455
2018-04-18T06:43:07.417Z,1430
2018-04-18T06:43:48.053Z,1395
2018-04-18T06:44:28.639Z,1415
2018-04-18T06:45:09.195Z,1420
2018-04-18T06:45:49.792Z,1435
2018-04-18T06:46:30.342Z,1485
2018-04-18T06:47:10.922Z,1495
2018-04-18T06:47:51.611Z,1455
2018-04-18T06:48:32.267Z,1455
2018-04-18T06:49:12.796Z,1485
2018-04-18T06:49:53.450Z,1500
2018-04-18T06:50:34.042Z,1485
2018-04-18T06:51:14.664Z,1515
2018-04-18T06:51:55.263Z,1495
2018-04-18T06:52:35.940Z,1480
2018-04-18T06:53:16.600Z,1435
2018-04-18T06:53:57.304Z,1400
2018-04-18T06:54:37.879Z,1355
2018-04-18T06:55:18.477Z,1360
2018-04-18T06:55:59.059Z,1410
2018-04-18T06:56:39.629Z,1500
2018-04-18T06:57:20.195Z,1545
2018-04-18T06:58:00.875Z,1510
2018-04-18T06:58:41.437Z,1440
2018-04-18T06:59:22.005Z,1440
2018-04-18T07:00:02.596Z,1510
2018-04-18T07:00:43.196Z,1510
2018-04-18T07:01:23.856Z,1510
2018-04-18T07:02:04.468Z,1515
2018-04-18T07:02:45.050Z,1535
2018-04-18T07:03:25.767Z,1490
2018-04-18T07:04:06.281Z,1455
2018-04-18T07:04:46.849Z,1455
2018-04-18T07:05:27.409Z,1480
2018-04-18T07:06:07.972Z,1510
2018-04-18T07:06:48.541Z,1500
2018-04-18T07:07:29.115Z,1540
2018-04-18T07:08:09.676Z,1575
2018-04-18T07:08:50.361Z,1630
2018-04-18T07:09:30.937Z,1585
2018-04-18T07:10:11.514Z,1520
2018-04-18T07:10:52.076Z,1505
2018-04-18T07:11:32.643Z,1495
2018-04-18T07:12:13.206Z,1510
2018-04-18T07:12:53.790Z,1545
2018-04-18T07:13:34.385Z,1495
2018-04-18T07:14:14.985Z,1425
2018-04-18T07:14:55.571Z,1420
2018-04-18T07:15:36.144Z,1490
2018-04-18T07:16:16.722Z,1505
2018-04-18T07:16:57.348Z,1505
2018-04-18T07:17:37.924Z,1540
2018-04-18T07:18:18.483Z,1575
2018-04-18T07:18:59.078Z,1545
2018-04-18T07:19:39.651Z,1515
2018-04-18T07:20:20.213Z,1505
2018-04-18T07:21:00.825Z,1495
2018-04-18T07:21:41.415Z,1430
2018-04-18T07:22:22.050Z,1440
2018-04-18T07:23:02.672Z,1400
2018-04-18T07:23:43.274Z,1430
2018-04-18T07:24:23.852Z,1455
2018-04-18T07:25:04.474Z,1455
2018-04-18T07:25:45.333Z,1395
2018-04-18T07:26:25.904Z,1420
2018-04-18T07:27:06.474Z,1400
2018-04-18T07:27:47.124Z,1375
2018-04-18T07:28:27.686Z,1345
2018-04-18T07:29:08.268Z,1250
2018-04-18T07:29:48.839Z,1225
2018-04-18T07:30:29.458Z,1180
2018-04-18T07:31:10.053Z,1170
2018-04-18T07:31:50.696Z,1135
2018-04-18T07:32:31.269Z,1080
2018-04-18T07:33:11.835Z,1065
2018-04-18T07:33:52.397Z,990
2018-04-18T07:34:32.984Z,885
2018-04-18T07:35:13.579Z,840
2018-04-18T07:35:54.139Z,810
2018-04-18T07:36:34.714Z,785
2018-04-18T07:37:15.302Z,770
2018-04-18T07:37:55.893Z,745
2018-04-18T07:38:36.503Z,725
2018-04-18T07:39:17.081Z,715
2018-04-18T07:39:57.651Z,685
2018-04-18T07:40:38.327Z,685
2018-04-18T07:41:18.926Z,690
2018-04-18T07:41:59.508Z,700
2018-04-18T07:42:40.091Z,690
2018-04-18T07:43:20.688Z,680
2018-04-18T07:44:01.256Z,665
2018-04-18T07:44:41.838Z,660
2018-04-18T07:45:22.436Z,660
2018-04-18T07:46:03.007Z,655
2018-04-18T07:46:43.580Z,655
2018-04-18T07:47:24.155Z,660
2018-04-18T07:48:04.804Z,660
2018-04-18T07:48:45.412Z,660
2018-04-18T07:49:26.000Z,650
2018-04-18T07:50:06.568Z,640
2018-04-18T07:50:47.155Z,635
2018-04-18T07:51:27.737Z,635
2018-04-18T07:52:08.335Z,645
2018-04-18T07:52:48.902Z,640
2018-04-18T07:53:29.518Z,625
2018-04-18T07:54:10.110Z,615
2018-04-18T07:54:50.669Z,625
2018-04-18T07:55:31.285Z,615
2018-04-18T07:56:11.834Z,615
2018-04-18T07:56:52.466Z,610
2018-04-18T07:57:33.041Z,610
2018-04-18T07:58:13.601Z,615
2018-04-18T07:58:54.199Z,615
2018-04-18T07:59:34.779Z,605
2018-04-18T08:00:15.377Z,600
2018-04-18T08:00:55.948Z,600
2018-04-18T08:01:36.525Z,600
2018-04-18T08:02:17.106Z,610
2018-04-18T08:02:57.670Z,610
2018-04-18T08:03:38.263Z,620
2018-04-18T08:04:18.843Z,595
2018-04-18T08:04:59.427Z,580
2018-04-18T08:05:40.014Z,545
2018-04-18T08:06:20.584Z,520
2018-04-18T08:07:01.166Z,495
2018-04-18T08:07:41.756Z,485
2018-04-18T08:08:22.313Z,475
2018-04-18T08:09:02.891Z,465
2018-04-18T08:09:43.490Z,465
2018-04-18T08:10:24.140Z,460
2018-04-18T08:11:04.716Z,465
2018-04-18T08:11:45.294Z,455
2018-04-18T08:12:25.881Z,450
2018-04-18T08:13:06.459Z,445
2018-04-18T08:13:47.048Z,440
2018-04-18T08:14:27.661Z,435
2018-04-18T08:15:08.294Z,435
2018-04-18T08:15:48.927Z,430
2018-04-18T08:16:29.531Z,430
2018-04-18T08:17:10.153Z,425
2018-04-18T08:17:50.738Z,415
2018-04-18T08:18:31.309Z,415
2018-04-18T08:19:11.878Z,410
2018-04-18T08:19:52.453Z,405
2018-04-18T08:20:33.069Z,400
2018-04-18T08:21:13.634Z,400
2018-04-18T08:21:54.234Z,390
2018-04-18T08:22:34.848Z,385
2018-04-18T08:23:15.424Z,380
2018-04-18T08:23:56.024Z,375
2018-04-18T08:24:36.587Z,375
2018-04-18T08:25:17.149Z,365
2018-04-18T08:25:57.727Z,365
2018-04-18T08:26:38.322Z,360
2018-04-18T08:27:18.902Z,355
2018-04-18T08:27:59.474Z,350
2018-04-18T08:28:40.037Z,345
2018-04-18T08:29:20.628Z,340
2018-04-18T08:30:01.238Z,335
2018-04-18T08:30:41.806Z,330
2018-04-18T08:31:22.368Z,330
2018-04-18T08:32:02.949Z,325
2018-04-18T08:32:43.514Z,320
2018-04-18T08:33:24.112Z,320
2018-04-18T08:34:04.720Z,320
2018-04-18T08:34:45.251Z,315
2018-04-18T08:35:25.830Z,315
2018-04-18T08:36:06.397Z,310
2018-04-18T08:36:46.961Z,305
2018-04-18T08:37:27.559Z,305
2018-04-18T08:38:08.142Z,300
2018-04-18T08:38:48.695Z,300
2018-04-18T08:39:29.261Z,295
2018-04-18T08:40:09.832Z,295
2018-04-18T08:40:50.446Z,290
2018-04-18T08:41:31.042Z,290
2018-04-18T08:42:11.622Z,285
2018-04-18T08:42:52.326Z,280
2018-04-18T08:43:32.894Z,280
2018-04-18T08:44:13.475Z,275
2018-04-18T08:44:54.037Z,275
2018-04-18T08:45:34.662Z,275
2018-04-18T08:46:15.255Z,270
2018-04-18T08:46:55.841Z,275
2018-04-18T08:47:36.434Z,270
2018-04-18T08:48:17.003Z,265
2018-04-18T08:48:57.631Z,265
2018-04-18T08:49:38.220Z,260
2018-04-18T08:50:18.783Z,260
2018-04-18T08:50:59.355Z,260
2018-04-18T08:51:39.954Z,255
2018-04-18T08:52:20.553Z,255
2018-04-18T08:53:01.114Z,250
2018-04-18T08:53:41.698Z,250
2018-04-18T08:54:22.298Z,250
2018-04-18T08:55:03.108Z,245
2018-04-18T08:55:43.700Z,245
2018-04-18T08:56:24.274Z,245
2018-04-18T08:57:04.852Z,240
2018-04-18T08:57:45.428Z,240
2018-04-18T08:58:26.005Z,240
2018-04-18T08:59:07.518Z,240
2018-04-18T08:59:48.110Z,235
2018-04-18T09:00:28.795Z,235
2018-04-18T09:01:09.840Z,235
2018-04-18T09:01:50.413Z,235
2018-04-18T09:02:31.016Z,230
2018-04-18T09:03:11.625Z,230
2018-04-18T09:03:52.212Z,225
2018-04-18T09:04:32.793Z,225
2018-04-18T09:05:13.381Z,225
2018-04-18T09:05:53.967Z,225
2018-04-18T09:06:34.534Z,220
2018-04-18T09:07:15.116Z,220
2018-04-18T09:07:55.731Z,220
2018-04-18T09:08:36.324Z,220
2018-04-18T09:09:16.927Z,215
2018-04-18T09:09:57.491Z,215
2018-04-18T09:10:38.102Z,215
2018-04-18T09:11:18.665Z,215
2018-04-18T09:11:59.231Z,210
2018-04-18T09:12:39.805Z,210
2018-04-18T09:13:20.397Z,210
2018-04-18T09:14:00.960Z,210
2018-04-18T09:14:41.513Z,210
2018-04-18T09:15:22.087Z,205
2018-04-18T09:16:02.692Z,205
2018-04-18T09:16:43.228Z,205
2018-04-18T09:17:23.802Z,205
2018-04-18T09:18:04.363Z,205
2018-04-18T09:18:44.941Z,205
2018-04-18T09:19:25.614Z,205
2018-04-18T09:20:06.191Z,205
2018-04-18T09:20:46.789Z,205
2018-04-18T09:21:27.372Z,205
2018-04-18T09:22:07.950Z,205
2018-04-18T09:22:48.520Z,205
2018-04-18T09:23:29.280Z,205
2018-04-18T09:24:09.892Z,200
2018-04-18T09:24:50.471Z,200
2018-04-18T09:25:31.062Z,200
2018-04-18T09:26:11.702Z,200
2018-04-18T09:26:52.311Z,200
2018-04-18T09:27:32.878Z,195
2018-04-18T09:28:13.505Z,195
2018-04-18T09:28:54.131Z,195
2018-04-18T09:29:34.766Z,195
2018-04-18T09:30:15.360Z,195
2018-04-18T09:30:55.950Z,195
2018-04-18T09:31:36.541Z,195
2018-04-18T09:32:17.103Z,195
2018-04-18T09:32:57.685Z,190
2018-04-18T09:33:38.338Z,190
2018-04-18T09:34:18.939Z,190
2018-04-18T09:34:59.500Z,190
2018-04-18T09:35:40.088Z,190
2018-04-18T09:36:20.665Z,190
2018-04-18T09:37:01.265Z,190
2018-04-18T09:37:41.851Z,185
2018-04-18T09:38:22.469Z,185